createdAt,value
2022-09-14T00:02:13.724Z,97364.44
2022-09-14T00:04:59.848Z,97473.03
2022-09-14T00:07:45.088Z,97537.72
2022-09-14T00:10:30.980Z,97365.88
2022-09-14T00:13:16.238Z,97366.84
2022-09-14T00:16:07.012Z,97422.06
2022-09-14T00:18:54.218Z,97351.00
2022-09-14T00:21:40.105Z,97522.44
2022-09-14T00:24:28.296Z,97528.00
2022-09-14T00:27:13.975Z,97499.72
2022-09-14T00:29:59.325Z,97405.38
2022-09-14T00:32:44.938Z,97468.38
2022-09-14T00:35:30.309Z,97512.13
2022-09-14T00:38:15.728Z,97517.31
2022-09-14T00:41:02.227Z,97346.25
2022-09-14T00:44:13.821Z,97510.88
2022-09-14T00:47:02.658Z,97360.66
2022-09-14T00:49:48.383Z,97505.38
2022-09-14T00:52:37.473Z,97505.38
2022-09-14T00:55:24.075Z,97356.56
2022-09-14T00:58:09.557Z,97491.38
2022-09-14T01:00:55.064Z,97414.75
2022-09-14T01:03:40.681Z,97365.47
2022-09-14T01:06:36.051Z,97318.69
2022-09-14T01:09:46.569Z,97490.25
2022-09-14T01:12:50.982Z,97522.44
2022-09-14T01:15:48.707Z,97472.78
2022-09-14T01:18:43.193Z,97315.09
2022-09-14T01:21:38.333Z,97465.75
2022-09-14T01:24:43.245Z,97260.22
2022-09-14T01:27:41.866Z,97354.31
2022-09-14T01:30:31.947Z,97351.25
2022-09-14T01:33:57.329Z,97486.59
2022-09-14T01:36:51.731Z,97384.53
2022-09-14T01:39:38.002Z,97468.16
2022-09-14T01:42:26.652Z,97426.34
2022-09-14T01:45:21.244Z,97332.44
2022-09-14T01:48:08.883Z,97450.19
2022-09-14T01:50:58.532Z,97421.78
2022-09-14T01:53:49.526Z,97284.16
2022-09-14T01:56:41.516Z,97448.78
2022-09-14T01:59:31.712Z,97335.06
2022-09-14T02:02:23.960Z,97385.03
2022-09-14T02:05:12.481Z,97456.31
2022-09-14T02:07:58.449Z,97410.78
2022-09-14T02:10:44.197Z,97291.75
2022-09-14T02:13:29.883Z,97321.47
2022-09-14T02:16:15.650Z,97304.16
2022-09-14T02:19:01.744Z,97412.03
2022-09-14T02:21:47.338Z,97374.13
2022-09-14T02:24:33.102Z,97447.84
2022-09-14T02:27:18.557Z,97431.25
2022-09-14T02:30:04.773Z,97258.25
2022-09-14T02:32:59.189Z,97443.84
2022-09-14T02:35:53.942Z,97419.56
2022-09-14T02:39:17.635Z,97428.66
2022-09-14T02:42:09.894Z,97430.72
2022-09-14T02:45:07.722Z,97425.88
2022-09-14T02:48:31.863Z,97432.69
2022-09-14T02:51:32.725Z,97461.25
2022-09-14T02:54:45.234Z,97395.31
2022-09-14T02:57:30.674Z,97439.91
2022-09-14T03:00:16.082Z,97436.47
2022-09-14T03:03:01.367Z,97308.91
2022-09-14T03:05:47.613Z,97408.72
2022-09-14T03:08:34.066Z,97352.09
2022-09-14T03:11:19.979Z,97413.50
2022-09-14T03:14:05.894Z,97413.50
2022-09-14T03:16:51.199Z,97419.75
2022-09-14T03:19:36.584Z,97426.16
2022-09-14T03:22:21.940Z,97263.75
2022-09-14T03:25:07.660Z,97275.78
2022-09-14T03:27:57.183Z,97396.66
2022-09-14T03:30:42.529Z,97103.56
2022-09-14T03:33:28.082Z,97233.63
2022-09-14T03:36:16.889Z,97257.34
2022-09-14T03:39:02.503Z,97394.47
2022-09-14T03:41:47.856Z,97363.44
2022-09-14T03:44:33.241Z,97382.22
2022-09-14T03:47:18.657Z,97320.09
2022-09-14T03:50:04.359Z,97263.63
2022-09-14T03:52:49.652Z,97289.91
2022-09-14T03:55:35.009Z,97349.50
2022-09-14T03:58:20.688Z,97231.03
2022-09-14T04:01:07.801Z,97410.78
2022-09-14T04:03:53.267Z,97309.25
2022-09-14T04:06:38.743Z,97368.28
2022-09-14T04:09:23.999Z,97233.91
2022-09-14T04:12:09.710Z,97417.59
2022-09-14T04:14:55.301Z,97313.88
2022-09-14T04:17:40.905Z,97376.75
2022-09-14T04:20:26.327Z,97227.91
2022-09-14T04:23:12.297Z,97380.16
2022-09-14T04:25:57.718Z,97383.13
2022-09-14T04:28:43.661Z,97387.25
2022-09-14T04:31:29.754Z,97262.09
2022-09-14T04:34:15.338Z,97320.63
2022-09-14T04:37:00.613Z,97385.63
2022-09-14T04:39:46.649Z,97382.22
2022-09-14T04:42:31.978Z,97229.00
2022-09-14T04:45:17.275Z,97382.31
2022-09-14T04:48:03.103Z,97375.81
2022-09-14T04:50:48.540Z,97258.50
2022-09-14T04:53:35.348Z,97387.16
2022-09-14T04:56:22.654Z,97405.41
2022-09-14T04:59:08.504Z,97248.09
2022-09-14T05:01:54.251Z,97376.31
2022-09-14T05:04:40.444Z,97385.72
2022-09-14T05:07:25.985Z,97386.34
2022-09-14T05:10:11.573Z,97328.56
2022-09-14T05:12:56.802Z,97334.75
2022-09-14T05:15:42.637Z,97240.09
2022-09-14T05:18:28.112Z,97389.09
2022-09-14T05:21:17.469Z,97257.09
2022-09-14T05:24:21.565Z,97388.47
2022-09-14T05:27:07.185Z,97243.56
2022-09-14T05:29:53.361Z,97295.94
2022-09-14T05:32:39.139Z,97332.28
2022-09-14T05:35:24.569Z,97340.66
2022-09-14T05:38:09.959Z,97369.94
2022-09-14T05:40:55.564Z,97189.50
2022-09-14T05:43:41.688Z,97229.78
2022-09-14T05:46:27.345Z,97380.84
2022-09-14T05:49:12.596Z,97311.63
2022-09-14T05:51:57.933Z,97255.78
2022-09-14T05:54:43.259Z,97323.06
2022-09-14T05:57:28.583Z,97248.03
2022-09-14T06:00:15.047Z,97227.25
2022-09-14T06:03:01.124Z,97380.16
2022-09-14T06:05:46.581Z,97205.72
2022-09-14T06:08:32.852Z,97340.34
2022-09-14T06:11:22.590Z,97314.47
2022-09-14T06:14:08.461Z,97356.28
2022-09-14T06:16:53.984Z,97336.47
2022-09-14T06:19:39.384Z,97368.75
2022-09-14T06:22:24.679Z,97373.97
2022-09-14T06:25:11.513Z,97366.72
2022-09-14T06:27:57.171Z,97393.56
2022-09-14T06:30:44.270Z,97363.44
2022-09-14T06:33:31.393Z,97242.84
2022-09-14T06:36:19.746Z,97256.19
2022-09-14T06:39:05.241Z,97278.50
2022-09-14T06:41:53.946Z,97377.50
2022-09-14T06:44:40.172Z,97403.22
2022-09-14T06:47:25.529Z,97293.88
2022-09-14T06:50:10.831Z,97382.28
2022-09-14T06:52:56.135Z,97388.84
2022-09-14T06:55:41.582Z,97225.72
2022-09-14T06:58:27.114Z,97355.25
2022-09-14T07:01:15.078Z,97386.78
2022-09-14T07:04:01.583Z,97180.66
2022-09-14T07:06:49.699Z,97225.47
2022-09-14T07:09:36.637Z,97358.00
2022-09-14T07:12:22.241Z,97265.88
2022-09-14T07:15:08.443Z,97274.78
2022-09-14T07:17:54.050Z,97376.81
2022-09-14T07:20:39.598Z,97347.84
2022-09-14T07:23:24.787Z,97349.56
2022-09-14T07:26:19.091Z,97370.16
2022-09-14T07:29:06.930Z,97376.16
2022-09-14T07:31:54.074Z,97267.38
2022-09-14T07:34:39.642Z,97352.28
2022-09-14T07:37:25.351Z,97227.03
2022-09-14T07:40:11.214Z,97217.75
2022-09-14T07:42:57.707Z,97337.13
2022-09-14T07:45:43.158Z,97354.41
2022-09-14T07:48:28.484Z,97377.31
2022-09-14T07:51:14.460Z,97375.91
2022-09-14T07:54:01.753Z,97252.38
2022-09-14T07:56:47.438Z,97229.19
2022-09-14T07:59:37.346Z,97260.66
2022-09-14T08:02:24.121Z,97383.91
2022-09-14T08:05:10.174Z,97252.50
2022-09-14T08:07:56.974Z,97368.41
2022-09-14T08:10:42.343Z,97366.28
2022-09-14T08:13:27.772Z,97369.41
2022-09-14T08:16:13.989Z,97213.41
2022-09-14T08:19:01.536Z,97379.72
2022-09-14T08:21:47.952Z,97362.25
2022-09-14T08:24:33.558Z,97245.13
2022-09-14T08:27:18.930Z,97398.16
2022-09-14T08:30:05.308Z,97260.78
2022-09-14T08:32:50.711Z,97371.91
2022-09-14T08:35:57.549Z,97354.75
2022-09-14T08:38:43.423Z,97313.16
2022-09-14T08:41:37.796Z,97367.28
2022-09-14T08:44:31.426Z,97385.09
2022-09-14T08:47:28.903Z,97232.03
2022-09-14T08:50:18.337Z,97318.63
2022-09-14T08:53:05.713Z,97235.13
2022-09-14T08:56:00.624Z,97331.66
2022-09-14T08:58:51.928Z,97379.63
2022-09-14T09:01:37.280Z,97388.94
2022-09-14T09:04:28.788Z,97395.41
2022-09-14T09:07:32.699Z,97408.84
2022-09-14T09:10:19.039Z,97329.88
2022-09-14T09:13:06.893Z,97231.59
2022-09-14T09:15:55.116Z,97367.75
2022-09-14T09:19:13.919Z,97370.59
2022-09-14T09:22:03.288Z,97378.09
2022-09-14T09:24:52.646Z,97241.19
2022-09-14T09:27:37.633Z,97324.91
2022-09-14T09:30:29.606Z,97307.75
2022-09-14T09:33:23.256Z,97327.56
2022-09-14T09:36:24.783Z,97357.44
2022-09-14T09:39:10.385Z,97224.25
2022-09-14T09:42:06.665Z,97350.22
2022-09-14T09:45:01.313Z,97353.09
2022-09-14T09:47:48.704Z,97239.91
2022-09-14T09:50:34.116Z,97376.09
2022-09-14T09:53:22.914Z,97233.25
2022-09-14T09:56:16.562Z,97255.13
2022-09-14T09:59:02.967Z,97225.25
2022-09-14T10:01:48.891Z,97292.03
2022-09-14T10:04:35.226Z,97338.84
2022-09-14T10:07:22.474Z,97352.81
2022-09-14T10:10:14.380Z,97303.41
2022-09-14T10:13:00.168Z,97350.13
2022-09-14T10:15:47.037Z,97359.25
2022-09-14T10:18:32.988Z,97355.56
2022-09-14T10:21:23.507Z,97338.94
2022-09-14T10:24:15.070Z,97340.19
2022-09-14T10:27:00.561Z,97240.50
2022-09-14T10:29:49.655Z,97300.25
2022-09-14T10:32:35.908Z,97328.44
2022-09-14T10:35:28.286Z,97367.06
2022-09-14T10:38:39.072Z,97360.53
2022-09-14T10:41:45.513Z,97219.97
2022-09-14T10:44:57.789Z,97334.13
2022-09-14T10:48:14.891Z,97354.81
2022-09-14T10:51:31.567Z,97348.94
2022-09-14T10:54:31.047Z,97350.94
2022-09-14T10:57:34.789Z,97345.38
2022-09-14T11:00:21.141Z,97337.66
2022-09-14T11:03:25.571Z,97336.28
2022-09-14T11:06:29.325Z,97342.59
2022-09-14T11:09:47.047Z,97363.81
2022-09-14T11:12:41.911Z,97349.78
2022-09-14T11:16:06.046Z,97337.22
2022-09-14T11:18:51.578Z,97351.44
2022-09-14T11:21:46.278Z,97341.72
2022-09-14T11:24:56.358Z,97343.28
2022-09-14T11:27:52.464Z,97288.38
2022-09-14T11:31:04.833Z,97337.91
2022-09-14T11:34:04.336Z,97357.88
2022-09-14T11:36:59.302Z,97322.00
2022-09-14T11:43:27.255Z,97330.13
2022-09-14T11:46:25.040Z,97268.56
2022-09-14T11:49:29.065Z,97270.50
2022-09-14T11:52:23.635Z,97300.66
2022-09-14T11:55:15.340Z,97316.38
2022-09-14T11:58:05.466Z,97317.47
2022-09-14T12:01:05.012Z,97213.72
2022-09-14T12:03:53.352Z,97312.88
2022-09-14T12:06:38.895Z,97314.44
2022-09-14T12:09:25.146Z,97306.06
2022-09-14T12:12:31.672Z,97285.75
2022-09-14T12:15:34.400Z,97303.34
2022-09-14T12:18:23.293Z,97316.06
2022-09-14T12:21:27.383Z,97314.91
2022-09-14T12:24:16.123Z,97241.25
2022-09-14T12:27:15.411Z,97209.16
2022-09-14T12:30:00.889Z,97179.75
2022-09-14T12:32:46.401Z,97320.56
2022-09-14T12:35:38.028Z,97320.50
2022-09-14T12:38:29.701Z,97320.50
2022-09-14T12:41:15.188Z,97330.97
2022-09-14T12:44:00.553Z,97324.56
2022-09-14T12:46:46.126Z,97324.22
2022-09-14T12:49:36.152Z,97315.69
2022-09-14T12:52:57.486Z,97339.81
2022-09-14T12:55:56.979Z,97255.47
2022-09-14T12:59:06.203Z,97317.06
2022-09-14T13:02:23.512Z,97316.03
2022-09-14T13:05:16.192Z,97323.88
2022-09-14T13:08:10.251Z,97318.84
2022-09-14T13:11:00.523Z,97315.25
2022-09-14T13:13:51.379Z,97300.72
2022-09-14T13:16:44.014Z,97162.78
2022-09-14T13:19:32.919Z,97171.22
2022-09-14T13:22:25.144Z,97319.16
2022-09-14T13:25:32.492Z,97319.00
2022-09-14T13:28:20.971Z,97320.50
2022-09-14T13:31:14.179Z,97323.34
2022-09-14T13:34:03.215Z,97241.16
2022-09-14T13:36:49.677Z,97183.31
2022-09-14T13:39:42.147Z,97176.25
2022-09-14T13:42:27.747Z,97277.22
2022-09-14T13:45:14.471Z,97280.09
2022-09-14T13:48:00.882Z,97198.41
2022-09-14T13:50:51.157Z,97240.75
2022-09-14T13:53:42.863Z,97306.56
2022-09-14T13:56:31.410Z,97295.63
2022-09-14T13:59:21.458Z,97182.19
2022-09-14T14:02:13.366Z,97263.38
2022-09-14T14:04:58.773Z,97297.97
2022-09-14T14:07:46.019Z,97297.34
2022-09-14T14:10:40.470Z,97255.19
2022-09-14T14:13:28.719Z,97155.47
2022-09-14T14:16:18.180Z,97175.47
2022-09-14T14:19:04.347Z,97286.16
2022-09-14T14:21:50.561Z,97285.97
2022-09-14T14:24:45.194Z,97293.19
2022-09-14T14:27:44.838Z,97303.06
2022-09-14T14:30:31.941Z,97298.75
2022-09-14T14:33:19.396Z,97292.66
2022-09-14T14:36:09.784Z,97273.53
2022-09-14T14:38:56.547Z,97149.94
2022-09-14T14:41:42.806Z,97287.03
2022-09-14T14:44:29.125Z,97288.38
2022-09-14T14:47:16.248Z,97225.78
2022-09-14T14:50:03.962Z,97299.34
2022-09-14T14:52:51.531Z,97253.25
2022-09-14T14:55:37.666Z,97286.94
2022-09-14T14:58:24.458Z,97289.38
2022-09-14T15:01:09.791Z,97293.09
2022-09-14T15:03:55.465Z,97249.41
2022-09-14T15:06:41.071Z,97288.06
2022-09-14T15:09:28.362Z,97245.94
2022-09-14T15:12:14.109Z,97273.66
2022-09-14T15:14:59.813Z,97273.53
2022-09-14T15:17:47.441Z,97103.06
2022-09-14T15:20:33.196Z,97135.16
2022-09-14T15:23:19.073Z,97276.91
2022-09-14T15:26:04.808Z,97278.97
2022-09-14T15:28:51.711Z,97285.94
2022-09-14T15:31:37.301Z,97278.88
2022-09-14T15:34:23.552Z,97273.19
2022-09-14T15:37:09.490Z,97263.88
2022-09-14T15:39:55.736Z,97245.75
2022-09-14T15:42:41.601Z,97252.41
2022-09-14T15:45:27.805Z,97252.84
2022-09-14T15:48:15.834Z,97254.13
2022-09-14T15:51:10.006Z,97260.63
2022-09-14T15:53:56.055Z,97227.66
2022-09-14T15:56:42.163Z,97266.09
2022-09-14T15:59:28.676Z,97105.00
2022-09-14T16:02:15.039Z,97256.59
2022-09-14T16:05:00.938Z,97261.44
2022-09-14T16:07:46.466Z,97257.16
2022-09-14T16:10:32.295Z,97262.06
2022-09-14T16:13:17.713Z,97245.47
2022-09-14T16:16:16.029Z,97213.00
2022-09-14T16:19:14.050Z,97250.03
2022-09-14T16:22:01.066Z,97268.19
2022-09-14T16:24:47.416Z,97210.44
2022-09-14T16:27:32.964Z,97250.53
2022-09-14T16:30:19.075Z,97250.06
2022-09-14T16:33:04.670Z,97253.59
2022-09-14T16:35:51.066Z,97219.44
2022-09-14T16:38:37.640Z,97253.88
2022-09-14T16:41:24.034Z,97215.63
2022-09-14T16:44:19.599Z,97106.34
2022-09-14T16:47:05.291Z,97158.06
2022-09-14T16:49:51.682Z,97248.56
2022-09-14T16:52:37.305Z,97147.72
2022-09-14T16:55:22.920Z,97269.63
2022-09-14T16:58:08.387Z,97276.53
2022-09-14T17:00:54.503Z,97233.28
2022-09-14T17:03:40.871Z,97114.25
2022-09-14T17:06:30.574Z,97262.84
2022-09-14T17:09:30.028Z,97266.91
2022-09-14T17:12:17.066Z,97277.16
2022-09-14T17:15:02.537Z,97153.41
2022-09-14T17:17:50.934Z,97255.31
2022-09-14T17:20:38.214Z,97235.22
2022-09-14T17:23:24.350Z,97252.31
2022-09-14T17:26:11.535Z,97286.00
2022-09-14T17:28:58.923Z,97284.63
2022-09-14T17:31:46.053Z,97137.66
2022-09-14T17:34:32.543Z,97279.59
2022-09-14T17:37:18.824Z,97256.34
2022-09-14T17:40:08.498Z,97276.47
2022-09-14T17:42:54.439Z,97294.00
2022-09-14T17:45:41.085Z,97180.09
2022-09-14T17:48:31.643Z,97256.09
2022-09-14T17:51:20.818Z,97283.81
2022-09-14T17:54:06.815Z,97288.69
2022-09-14T17:56:52.679Z,97142.31
2022-09-14T17:59:38.724Z,97209.25
2022-09-14T18:02:24.962Z,97277.41
2022-09-14T18:05:11.016Z,97278.63
2022-09-14T18:07:57.129Z,97271.00
2022-09-14T18:10:44.036Z,97269.44
2022-09-14T18:13:29.508Z,97280.06
2022-09-14T18:16:16.790Z,97251.91
2022-09-14T18:19:03.220Z,97229.47
2022-09-14T18:21:52.426Z,97280.44
2022-09-14T18:24:38.701Z,97279.63
2022-09-14T18:27:25.115Z,97275.88
2022-09-14T18:30:15.005Z,97286.38
2022-09-14T18:33:06.872Z,97272.22
2022-09-14T18:35:53.904Z,97167.97
2022-09-14T18:38:39.877Z,97270.72
2022-09-14T18:41:35.781Z,97270.00
2022-09-14T18:44:22.439Z,97260.81
2022-09-14T18:47:15.743Z,97185.97
2022-09-14T18:50:07.168Z,97266.25
2022-09-14T18:52:53.788Z,97264.69
2022-09-14T18:55:39.927Z,97256.78
2022-09-14T18:58:25.977Z,97252.31
2022-09-14T19:01:13.079Z,97237.66
2022-09-14T19:03:59.323Z,97259.28
2022-09-14T19:06:45.153Z,97268.22
2022-09-14T19:09:31.262Z,97233.91
2022-09-14T19:12:17.801Z,97258.91
2022-09-14T19:15:04.613Z,97248.16
2022-09-14T19:17:50.968Z,97179.00
2022-09-14T19:21:04.914Z,97228.03
2022-09-14T19:23:46.998Z,97069.56
2022-09-14T19:26:44.603Z,97248.00
2022-09-14T19:29:32.926Z,97226.59
2022-09-14T19:32:19.491Z,97197.84
2022-09-14T19:35:06.180Z,97210.72
2022-09-14T19:37:53.232Z,97228.75
2022-09-14T19:40:39.329Z,97233.63
2022-09-14T19:43:26.042Z,97263.06
2022-09-14T19:46:14.449Z,97223.03
2022-09-14T19:49:00.214Z,97166.66
2022-09-14T19:51:47.143Z,97178.72
2022-09-14T19:54:33.250Z,97180.63
2022-09-14T19:57:19.715Z,97219.69
2022-09-14T20:00:09.519Z,97269.78
2022-09-14T20:02:54.942Z,97238.91
2022-09-14T20:05:40.321Z,97240.38
2022-09-14T20:08:25.826Z,97236.13
2022-09-14T20:11:17.652Z,97250.13
2022-09-14T20:14:07.797Z,97076.38
2022-09-14T20:16:56.842Z,97081.56
2022-09-14T20:19:42.585Z,97238.78
2022-09-14T20:22:28.330Z,97090.72
2022-09-14T20:25:13.827Z,97223.69
2022-09-14T20:27:59.159Z,97106.84
2022-09-14T20:30:44.642Z,97163.72
2022-09-14T20:33:30.655Z,97182.78
2022-09-14T20:36:18.974Z,97195.63
2022-09-14T20:39:05.218Z,97069.34
2022-09-14T20:41:52.818Z,97217.59
2022-09-14T20:44:38.290Z,97218.56
2022-09-14T20:47:24.775Z,97076.22
2022-09-14T20:50:12.750Z,97214.00
2022-09-14T20:52:58.278Z,97074.94
2022-09-14T20:55:43.993Z,97180.69
2022-09-14T20:58:29.846Z,97063.75
2022-09-14T21:01:18.398Z,97228.72
2022-09-14T21:04:07.242Z,97214.09
2022-09-14T21:06:55.279Z,97206.31
2022-09-14T21:09:40.822Z,97049.88
2022-09-14T21:12:27.970Z,97133.19
2022-09-14T21:15:13.535Z,97075.72
2022-09-14T21:17:59.010Z,97178.59
2022-09-14T21:20:44.723Z,97212.06
2022-09-14T21:23:30.273Z,97167.66
2022-09-14T21:26:16.497Z,97183.31
2022-09-14T21:29:06.326Z,97072.63
2022-09-14T21:31:53.186Z,97146.94
2022-09-14T21:34:38.813Z,97197.06
2022-09-14T21:37:26.592Z,97194.66
2022-09-14T21:40:13.617Z,96974.06
2022-09-14T21:42:58.919Z,97081.31
2022-09-14T21:45:45.325Z,97023.28
2022-09-14T21:48:31.224Z,97049.78
2022-09-14T21:51:24.437Z,97137.50
2022-09-14T21:54:12.024Z,97174.28
2022-09-14T21:56:57.774Z,97172.13
2022-09-14T21:59:43.433Z,97134.78
2022-09-14T22:02:28.734Z,97163.41
2022-09-14T22:05:14.777Z,97168.78
2022-09-14T22:08:00.993Z,97153.44
2022-09-14T22:10:46.856Z,97150.56
2022-09-14T22:13:33.278Z,97133.41
2022-09-14T22:16:19.005Z,97113.25
2022-09-14T22:19:08.845Z,96996.25
2022-09-14T22:21:54.625Z,97146.41
2022-09-14T22:24:42.069Z,97147.78
2022-09-14T22:27:27.943Z,97012.75
2022-09-14T22:30:14.127Z,97136.34
2022-09-14T22:32:59.761Z,97122.88
2022-09-14T22:35:53.374Z,97121.59
2022-09-14T22:38:41.120Z,97091.84
2022-09-14T22:41:27.731Z,97107.50
2022-09-14T22:44:13.774Z,97136.94
2022-09-14T22:46:59.504Z,97116.31
2022-09-14T22:49:45.599Z,97130.06
2022-09-14T22:52:31.241Z,97112.41
2022-09-14T22:55:16.885Z,97115.41
2022-09-14T22:58:02.662Z,97123.03
2022-09-14T23:00:48.672Z,97109.59
2022-09-14T23:03:34.738Z,97118.31
2022-09-14T23:06:20.200Z,97116.94
2022-09-14T23:09:08.802Z,97111.34
2022-09-14T23:11:54.630Z,97055.56
2022-09-14T23:14:40.079Z,97075.53
2022-09-14T23:17:25.912Z,97027.91
2022-09-14T23:20:12.324Z,97110.00
2022-09-14T23:22:58.219Z,97105.81
2022-09-14T23:25:44.032Z,96965.13
2022-09-14T23:28:30.412Z,96976.91
2022-09-14T23:31:15.997Z,97103.25
2022-09-14T23:34:04.239Z,97060.19
2022-09-14T23:36:50.042Z,97089.03
2022-09-14T23:39:35.833Z,97097.66
2022-09-14T23:42:21.351Z,97100.41
2022-09-14T23:45:07.508Z,97069.78
2022-09-14T23:47:52.928Z,97116.03
2022-09-14T23:50:38.737Z,97093.66
2022-09-14T23:53:24.366Z,96961.06
2022-09-14T23:56:10.890Z,97082.63
2022-09-14T23:58:56.735Z,97059.22
